Costa Luminosa — ICGU — position and weather

sailwx.info

Track history (hours):
 
Tides and Currents Weather Stations Pressure Air Temp Water Temp Dewpoint Dewpoint Depression Visibility Wind Speed Wind Dir Waves Ship Positions

Costa Luminosa

Last reported at 2015-Sep-03 18:26 UTC. Time now 2015-Sep-03 19:14 UTC.
Position N 54°18' E 004°42'.

Length 294 m; draft 8.1 m.

Type: Passenger vessel. MMSI: 247257900.

Date/timePositionNaut miles runAvg speedWind from/ knotsBaromVisibWave heightAir tempDewpointWater temp
2015-Sep-03 18:26N 54°18' E 004°42'27817.5
2015-Sep-03 02:33N 57°49' E 010°05'1817.9
2015-Sep-03 01:34N 57°49' E 010°39'1717.2
2015-Sep-03 00:34N 57°39' E 011°05'1918.8
2015-Sep-02 23:34N 57°25' E 011°28'1918.9
2015-Sep-02 22:34N 57°07' E 011°40'1918.4
2015-Sep-02 21:31N 56°49' E 011°51'1717.8
2015-Sep-02 20:33N 56°33' E 011°59'1717.6
2015-Sep-02 19:34N 56°16' E 012°09'1918.6
2015-Sep-02 18:34N 56°05' E 012°36'1716.7
2015-Sep-02 17:34N 55°49' E 012°44'7 6.3
2015-Sep-02 16:29N 55°43' E 012°38'0 0.0
2015-Sep-02 15:32N 55°43' E 012°38'0 0.0
2015-Sep-02 14:31N 55°43' E 012°38'0 0.0
2015-Sep-02 13:32N 55°43' E 012°38'0 0.0
2015-Sep-02 12:32N 55°43' E 012°38'0 0.0
2015-Sep-02 11:32N 55°43' E 012°38'0 0.0
2015-Sep-02 10:32N 55°43' E 012°38'0 0.0
2015-Sep-02 09:32N 55°43' E 012°38'0 0.0
2015-Sep-02 08:32N 55°43' E 012°38'0 0.0
2015-Sep-02 07:32N 55°43' E 012°38'0 0.0
2015-Sep-02 06:33N 55°43' E 012°38'8 7.6
2015-Sep-02 05:33N 55°50' E 012°43'1514.9
2015-Sep-02 04:33N 56°05' E 012°36'1717.2
2015-Sep-02 03:33N 56°12' E 012°08'1817.7
2015-Sep-02 02:33N 56°07' E 011°37'7714.4
2015-Sep-01 21:11N 54°54' E 010°54'1118.1
2015-Sep-01 20:33N 54°42' E 010°54'1817.9
2015-Sep-01 19:33N 54°33' E 011°20'1717.4
2015-Sep-01 18:33N 54°26' E 011°47'1515.0
2015-Sep-01 17:33N 54°14' E 012°04'4 3.7
2015-Sep-01 16:32N 54°11' E 012°06'0 0.0
2015-Sep-01 15:26N 54°11' E 012°06'0 0.0
2015-Sep-01 14:32N 54°11' E 012°06'0 0.0
2015-Sep-01 13:20N 54°11' E 012°06'0 0.0
2015-Sep-01 12:32N 54°11' E 012°06'0 0.0
2015-Sep-01 11:32N 54°11' E 012°06'0 0.0
2015-Sep-01 10:32N 54°11' E 012°06'0 0.0
2015-Sep-01 09:20N 54°11' E 012°06'0 0.0
2015-Sep-01 08:32N 54°11' E 012°06'0 0.0
2015-Sep-01 07:29N 54°11' E 012°06'0 0.0
2015-Sep-01 06:32N 54°11' E 012°06'0 0.0
2015-Sep-01 05:15N 54°11' E 012°06'1 1.5
2015-Sep-01 04:29N 54°12' E 012°05'1213.2
2015-Sep-01 03:33N 54°22' E 011°53'1413.5
2015-Sep-01 02:33N 54°30' E 012°11'1312.8
2015-Sep-01 01:33N 54°40' E 012°25'1313.1
2015-Sep-01 00:33N 54°47' E 012°43'1713.8
2015-Aug-31 23:17N 54°54' E 013°12'1014.0
2015-Aug-31 22:33N 54°58' E 013°28'1413.9
2015-Aug-31 21:33N 55°01' E 013°52'1313.0
2015-Aug-31 20:33N 55°09' E 014°10'1211.5
2015-Aug-31 19:33N 55°18' E 014°23'1111.2
2015-Aug-31 18:34N 55°26' E 014°36'1111.1
2015-Aug-31 17:34N 55°31' E 014°53'1111.2
2015-Aug-31 16:33N 55°37' E 015°10'1111.0
2015-Aug-31 15:33N 55°42' E 015°27'1311.0
2015-Aug-31 14:23N 55°49' E 015°47'911.1
2015-Aug-31 13:33N 55°53' E 016°01'1111.1
2015-Aug-31 12:33N 55°59' E 016°19'1111.1
2015-Aug-31 11:33N 56°05' E 016°35'1010.5
2015-Aug-31 10:33N 56°13' E 016°48'1111.1
2015-Aug-31 09:33N 56°23' E 016°56'1110.9
2015-Aug-31 08:33N 56°33' E 017°04'1110.8
2015-Aug-31 07:33N 56°43' E 017°11'1110.9
2015-Aug-31 06:33N 56°53' E 017°19'1110.9
2015-Aug-31 05:33N 57°03' E 017°27'1110.5
2015-Aug-31 04:33N 57°13' E 017°32'1010.3
2015-Aug-31 03:33N 57°23' E 017°36'1110.5
2015-Aug-31 02:33N 57°32' E 017°45'1110.7
2015-Aug-31 01:33N 57°42' E 017°55'1110.9
2015-Aug-31 00:33N 57°51' E 018°06'93 5.4
2015-Aug-30 07:30N 59°23' E 018°27'8 8.8
2015-Aug-30 06:33N 59°20' E 018°12'2 2.0
2015-Aug-30 05:31N 59°21' E 018°08'0 0.0
2015-Aug-30 04:31N 59°21' E 018°08'0 0.0
2015-Aug-30 03:31N 59°21' E 018°08'0 0.0
2015-Aug-30 02:28N 59°21' E 018°08'0 0.0
2015-Aug-30 01:31N 59°21' E 018°08'0 0.0
2015-Aug-30 00:31N 59°21' E 018°08'0 0.0
2015-Aug-29 23:31N 59°21' E 018°08'0 0.0
2015-Aug-29 22:31N 59°21' E 018°08'0 0.0
2015-Aug-29 21:31N 59°21' E 018°08'0 0.0
2015-Aug-29 20:31N 59°21' E 018°08'0 0.0
2015-Aug-29 19:31N 59°21' E 018°08'0 0.0
2015-Aug-29 18:31N 59°21' E 018°08'0 0.0
2015-Aug-29 17:31N 59°21' E 018°08'0 0.0
2015-Aug-29 16:31N 59°21' E 018°08'0 0.0
2015-Aug-29 15:31N 59°21' E 018°08'0 0.0
2015-Aug-29 14:31N 59°21' E 018°08'0 0.0
2015-Aug-29 13:31N 59°21' E 018°08'0 0.0
2015-Aug-29 12:31N 59°21' E 018°08'0 0.0
2015-Aug-29 11:31N 59°21' E 018°08'0 0.0
2015-Aug-29 10:31N 59°21' E 018°08'0 0.0
2015-Aug-29 09:31N 59°21' E 018°08'0 0.0
2015-Aug-29 08:31N 59°21' E 018°08'0 0.0
2015-Aug-29 07:31N 59°21' E 018°08'0 0.0
2015-Aug-29 06:31N 59°21' E 018°08'0 0.0
2015-Aug-29 05:31N 59°21' E 018°08'0 0.0
2015-Aug-29 04:31N 59°21' E 018°08'0 0.0
2015-Aug-29 03:31N 59°21' E 018°08'0 0.0
2015-Aug-29 02:31N 59°21' E 018°08'0 0.0
2015-Aug-29 01:33N 59°21' E 018°08'0 0.0
2015-Aug-29 00:33N 59°21' E 018°08'0 0.0
2015-Aug-28 23:33N 59°21' E 018°08'0 0.0
2015-Aug-28 22:33N 59°21' E 018°08'0 0.0
2015-Aug-28 21:33N 59°21' E 018°08'0 0.0
2015-Aug-28 20:33N 59°21' E 018°08'0 0.0
2015-Aug-28 19:33N 59°21' E 018°08'0 0.0
2015-Aug-28 18:33N 59°21' E 018°08'0 0.0
2015-Aug-28 17:33N 59°21' E 018°08'0 0.0
2015-Aug-28 16:33N 59°21' E 018°08'0 0.0
2015-Aug-28 15:33N 59°21' E 018°08'0 0.0
2015-Aug-28 14:33N 59°21' E 018°08'0 0.0
2015-Aug-28 13:33N 59°21' E 018°08'0 0.0
2015-Aug-28 12:33N 59°21' E 018°08'0 0.0
2015-Aug-28 11:33N 59°21' E 018°08'0 0.0
2015-Aug-28 10:33N 59°21' E 018°08'0 0.0
2015-Aug-28 09:33N 59°21' E 018°08'0 0.0
2015-Aug-28 08:33N 59°21' E 018°08'0 0.0
2015-Aug-28 07:33N 59°21' E 018°08'0 0.0
2015-Aug-28 06:33N 59°21' E 018°08'8 8.0
2015-Aug-28 05:33N 59°22' E 018°23'9311.6
2015-Aug-27 21:33N 59°29' E 021°26'1414.7
2015-Aug-27 20:33N 59°28' E 021°54'1514.6
2015-Aug-27 19:33N 59°29' E 022°23'1514.9
2015-Aug-27 18:33N 59°32' E 022°51'1515.0
2015-Aug-27 17:33N 59°32' E 023°21'1515.2
2015-Aug-27 16:33N 59°31' E 023°51'74 4.6
2015-Aug-27 00:21N 59°58' E 026°08'1316.5
2015-Aug-26 23:33N 60°01' E 026°34'9314.6
2015-Aug-26 17:13N 59°60' E 029°39'710.2
2015-Aug-26 16:32N 59°57' E 029°52'10 9.8
2015-Aug-26 15:33N 59°57' E 030°11'0 0.1
2015-Aug-26 14:33N 59°57' E 030°11'0 0.0
2015-Aug-26 13:30N 59°57' E 030°11'0 0.0
2015-Aug-26 12:33N 59°57' E 030°11'0 0.0
2015-Aug-26 11:33N 59°57' E 030°11'0 0.0
2015-Aug-26 10:33N 59°57' E 030°11'0 0.0
2015-Aug-26 09:33N 59°57' E 030°11'0 0.0
2015-Aug-26 08:33N 59°57' E 030°11'0 0.0
2015-Aug-26 07:33N 59°57' E 030°11'0 0.0
2015-Aug-26 06:33N 59°57' E 030°11'0 0.0
2015-Aug-26 05:33N 59°57' E 030°11'0 0.0
2015-Aug-26 04:33N 59°57' E 030°11'0 0.0
2015-Aug-26 03:33N 59°57' E 030°11'0 0.0
2015-Aug-26 02:33N 59°57' E 030°11'0 0.0
2015-Aug-26 01:30N 59°57' E 030°11'0 0.0
2015-Aug-26 00:33N 59°57' E 030°11'0 0.0
2015-Aug-25 23:33N 59°57' E 030°11'0 0.0
2015-Aug-25 22:33N 59°57' E 030°11'0 0.0
2015-Aug-25 21:33N 59°57' E 030°11'0 0.0
2015-Aug-25 20:33N 59°57' E 030°11'0 0.0
2015-Aug-25 19:24N 59°57' E 030°11'0 0.0
2015-Aug-25 18:33N 59°57' E 030°11'0 0.0
2015-Aug-25 17:33N 59°57' E 030°11'0 0.0
2015-Aug-25 16:33N 59°57' E 030°11'0 0.0
2015-Aug-25 15:33N 59°57' E 030°11'0 0.0
2015-Aug-25 14:33N 59°57' E 030°11'0 0.0
2015-Aug-25 13:30N 59°57' E 030°11'0 0.0
2015-Aug-25 12:28N 59°57' E 030°11'0 0.0
2015-Aug-25 11:33N 59°57' E 030°11'0 0.0
2015-Aug-25 10:34N 59°57' E 030°11'0 0.0
2015-Aug-25 09:30N 59°57' E 030°11'0 0.0
2015-Aug-25 08:33N 59°57' E 030°11'0 0.0
2015-Aug-25 07:33N 59°57' E 030°11'0 0.0
2015-Aug-25 06:33N 59°57' E 030°11'0 0.0
2015-Aug-25 05:27N 59°57' E 030°11'0 0.4
2015-Aug-25 04:33N 59°57' E 030°11'10 9.7
2015-Aug-25 03:33N 59°57' E 029°51'1110.8
2015-Aug-25 02:33N 60°01' E 029°31'5513.9
2015-Aug-24 22:33N 60°09' E 027°41'1413.9
2015-Aug-24 21:33N 60°02' E 027°17'1313.1
2015-Aug-24 20:33N 59°59' E 026°52'1313.4
2015-Aug-24 19:33N 59°58' E 026°25'1313.5
2015-Aug-24 18:33N 59°54' E 025°59'  
Track history (hours):
 
Tides and Currents Weather Stations Pressure Air Temp Water Temp Dewpoint Dewpoint Depression Visibility Wind Speed Wind Dir Waves Ship Positions

Costa Luminosa

Last reported at 2015-Sep-03 18:26 UTC. Time now 2015-Sep-03 19:14 UTC.
Position N 54°18' E 004°42'.

Length 294 m; draft 8.1 m.

Type: Passenger vessel. MMSI: 247257900.

Date/timePositionNaut miles runAvg speedWind from/ knotsBaromVisibWave heightAir tempDewpointWater temp
2015-Sep-03 18:26N 54°18' E 004°42'27817.5
2015-Sep-03 02:33N 57°49' E 010°05'1817.9
2015-Sep-03 01:34N 57°49' E 010°39'1717.2
2015-Sep-03 00:34N 57°39' E 011°05'1918.8
2015-Sep-02 23:34N 57°25' E 011°28'1918.9
2015-Sep-02 22:34N 57°07' E 011°40'1918.4
2015-Sep-02 21:31N 56°49' E 011°51'1717.8
2015-Sep-02 20:33N 56°33' E 011°59'1717.6
2015-Sep-02 19:34N 56°16' E 012°09'1918.6
2015-Sep-02 18:34N 56°05' E 012°36'1716.7
2015-Sep-02 17:34N 55°49' E 012°44'7 6.3
2015-Sep-02 16:29N 55°43' E 012°38'0 0.0
2015-Sep-02 15:32N 55°43' E 012°38'0 0.0
2015-Sep-02 14:31N 55°43' E 012°38'0 0.0
2015-Sep-02 13:32N 55°43' E 012°38'0 0.0
2015-Sep-02 12:32N 55°43' E 012°38'0 0.0
2015-Sep-02 11:32N 55°43' E 012°38'0 0.0
2015-Sep-02 10:32N 55°43' E 012°38'0 0.0
2015-Sep-02 09:32N 55°43' E 012°38'0 0.0
2015-Sep-02 08:32N 55°43' E 012°38'0 0.0
2015-Sep-02 07:32N 55°43' E 012°38'0 0.0
2015-Sep-02 06:33N 55°43' E 012°38'8 7.6
2015-Sep-02 05:33N 55°50' E 012°43'1514.9
2015-Sep-02 04:33N 56°05' E 012°36'1717.2
2015-Sep-02 03:33N 56°12' E 012°08'1817.7
2015-Sep-02 02:33N 56°07' E 011°37'7714.4
2015-Sep-01 21:11N 54°54' E 010°54'1118.1
2015-Sep-01 20:33N 54°42' E 010°54'1817.9
2015-Sep-01 19:33N 54°33' E 011°20'1717.4
2015-Sep-01 18:33N 54°26' E 011°47'1515.0
2015-Sep-01 17:33N 54°14' E 012°04'4 3.7
2015-Sep-01 16:32N 54°11' E 012°06'0 0.0
2015-Sep-01 15:26N 54°11' E 012°06'0 0.0
2015-Sep-01 14:32N 54°11' E 012°06'0 0.0
2015-Sep-01 13:20N 54°11' E 012°06'0 0.0
2015-Sep-01 12:32N 54°11' E 012°06'0 0.0
2015-Sep-01 11:32N 54°11' E 012°06'0 0.0
2015-Sep-01 10:32N 54°11' E 012°06'0 0.0
2015-Sep-01 09:20N 54°11' E 012°06'0 0.0
2015-Sep-01 08:32N 54°11' E 012°06'0 0.0
2015-Sep-01 07:29N 54°11' E 012°06'0 0.0
2015-Sep-01 06:32N 54°11' E 012°06'0 0.0
2015-Sep-01 05:15N 54°11' E 012°06'1 1.5
2015-Sep-01 04:29N 54°12' E 012°05'1213.2
2015-Sep-01 03:33N 54°22' E 011°53'1413.5
2015-Sep-01 02:33N 54°30' E 012°11'1312.8
2015-Sep-01 01:33N 54°40' E 012°25'1313.1
2015-Sep-01 00:33N 54°47' E 012°43'1713.8
2015-Aug-31 23:17N 54°54' E 013°12'1014.0
2015-Aug-31 22:33N 54°58' E 013°28'1413.9
2015-Aug-31 21:33N 55°01' E 013°52'1313.0
2015-Aug-31 20:33N 55°09' E 014°10'1211.5
2015-Aug-31 19:33N 55°18' E 014°23'1111.2
2015-Aug-31 18:34N 55°26' E 014°36'1111.1
2015-Aug-31 17:34N 55°31' E 014°53'1111.2
2015-Aug-31 16:33N 55°37' E 015°10'1111.0
2015-Aug-31 15:33N 55°42' E 015°27'1311.0
2015-Aug-31 14:23N 55°49' E 015°47'911.1
2015-Aug-31 13:33N 55°53' E 016°01'1111.1
2015-Aug-31 12:33N 55°59' E 016°19'1111.1
2015-Aug-31 11:33N 56°05' E 016°35'1010.5
2015-Aug-31 10:33N 56°13' E 016°48'1111.1
2015-Aug-31 09:33N 56°23' E 016°56'1110.9
2015-Aug-31 08:33N 56°33' E 017°04'1110.8
2015-Aug-31 07:33N 56°43' E 017°11'1110.9
2015-Aug-31 06:33N 56°53' E 017°19'1110.9
2015-Aug-31 05:33N 57°03' E 017°27'1110.5
2015-Aug-31 04:33N 57°13' E 017°32'1010.3
2015-Aug-31 03:33N 57°23' E 017°36'1110.5
2015-Aug-31 02:33N 57°32' E 017°45'1110.7
2015-Aug-31 01:33N 57°42' E 017°55'1110.9
2015-Aug-31 00:33N 57°51' E 018°06'93 5.4
2015-Aug-30 07:30N 59°23' E 018°27'8 8.8
2015-Aug-30 06:33N 59°20' E 018°12'2 2.0
2015-Aug-30 05:31N 59°21' E 018°08'0 0.0
2015-Aug-30 04:31N 59°21' E 018°08'0 0.0
2015-Aug-30 03:31N 59°21' E 018°08'0 0.0
2015-Aug-30 02:28N 59°21' E 018°08'0 0.0
2015-Aug-30 01:31N 59°21' E 018°08'0 0.0
2015-Aug-30 00:31N 59°21' E 018°08'0 0.0
2015-Aug-29 23:31N 59°21' E 018°08'0 0.0
2015-Aug-29 22:31N 59°21' E 018°08'0 0.0
2015-Aug-29 21:31N 59°21' E 018°08'0 0.0
2015-Aug-29 20:31N 59°21' E 018°08'0 0.0
2015-Aug-29 19:31N 59°21' E 018°08'0 0.0
2015-Aug-29 18:31N 59°21' E 018°08'0 0.0
2015-Aug-29 17:31N 59°21' E 018°08'0 0.0
2015-Aug-29 16:31N 59°21' E 018°08'0 0.0
2015-Aug-29 15:31N 59°21' E 018°08'0 0.0
2015-Aug-29 14:31N 59°21' E 018°08'0 0.0
2015-Aug-29 13:31N 59°21' E 018°08'0 0.0
2015-Aug-29 12:31N 59°21' E 018°08'0 0.0
2015-Aug-29 11:31N 59°21' E 018°08'0 0.0
2015-Aug-29 10:31N 59°21' E 018°08'0 0.0
2015-Aug-29 09:31N 59°21' E 018°08'0 0.0
2015-Aug-29 08:31N 59°21' E 018°08'0 0.0
2015-Aug-29 07:31N 59°21' E 018°08'0 0.0
2015-Aug-29 06:31N 59°21' E 018°08'0 0.0
2015-Aug-29 05:31N 59°21' E 018°08'0 0.0
2015-Aug-29 04:31N 59°21' E 018°08'0 0.0
2015-Aug-29 03:31N 59°21' E 018°08'0 0.0
2015-Aug-29 02:31N 59°21' E 018°08'0 0.0
2015-Aug-29 01:33N 59°21' E 018°08'0 0.0
2015-Aug-29 00:33N 59°21' E 018°08'0 0.0
2015-Aug-28 23:33N 59°21' E 018°08'0 0.0
2015-Aug-28 22:33N 59°21' E 018°08'0 0.0
2015-Aug-28 21:33N 59°21' E 018°08'0 0.0
2015-Aug-28 20:33N 59°21' E 018°08'0 0.0
2015-Aug-28 19:33N 59°21' E 018°08'0 0.0
2015-Aug-28 18:33N 59°21' E 018°08'0 0.0
2015-Aug-28 17:33N 59°21' E 018°08'0 0.0
2015-Aug-28 16:33N 59°21' E 018°08'0 0.0
2015-Aug-28 15:33N 59°21' E 018°08'0 0.0
2015-Aug-28 14:33N 59°21' E 018°08'0 0.0
2015-Aug-28 13:33N 59°21' E 018°08'0 0.0
2015-Aug-28 12:33N 59°21' E 018°08'0 0.0
2015-Aug-28 11:33N 59°21' E 018°08'0 0.0
2015-Aug-28 10:33N 59°21' E 018°08'0 0.0
2015-Aug-28 09:33N 59°21' E 018°08'0 0.0
2015-Aug-28 08:33N 59°21' E 018°08'0 0.0
2015-Aug-28 07:33N 59°21' E 018°08'0 0.0
2015-Aug-28 06:33N 59°21' E 018°08'8 8.0
2015-Aug-28 05:33N 59°22' E 018°23'9311.6
2015-Aug-27 21:33N 59°29' E 021°26'1414.7
2015-Aug-27 20:33N 59°28' E 021°54'1514.6
2015-Aug-27 19:33N 59°29' E 022°23'1514.9
2015-Aug-27 18:33N 59°32' E 022°51'1515.0
2015-Aug-27 17:33N 59°32' E 023°21'1515.2
2015-Aug-27 16:33N 59°31' E 023°51'74 4.6
2015-Aug-27 00:21N 59°58' E 026°08'1316.5
2015-Aug-26 23:33N 60°01' E 026°34'9314.6
2015-Aug-26 17:13N 59°60' E 029°39'710.2
2015-Aug-26 16:32N 59°57' E 029°52'10 9.8
2015-Aug-26 15:33N 59°57' E 030°11'0 0.1
2015-Aug-26 14:33N 59°57' E 030°11'0 0.0
2015-Aug-26 13:30N 59°57' E 030°11'0 0.0
2015-Aug-26 12:33N 59°57' E 030°11'0 0.0
2015-Aug-26 11:33N 59°57' E 030°11'0 0.0
2015-Aug-26 10:33N 59°57' E 030°11'0 0.0
2015-Aug-26 09:33N 59°57' E 030°11'0 0.0
2015-Aug-26 08:33N 59°57' E 030°11'0 0.0
2015-Aug-26 07:33N 59°57' E 030°11'0 0.0
2015-Aug-26 06:33N 59°57' E 030°11'0 0.0
2015-Aug-26 05:33N 59°57' E 030°11'0 0.0
2015-Aug-26 04:33N 59°57' E 030°11'0 0.0
2015-Aug-26 03:33N 59°57' E 030°11'0 0.0
2015-Aug-26 02:33N 59°57' E 030°11'0 0.0
2015-Aug-26 01:30N 59°57' E 030°11'0 0.0
2015-Aug-26 00:33N 59°57' E 030°11'0 0.0
2015-Aug-25 23:33N 59°57' E 030°11'0 0.0
2015-Aug-25 22:33N 59°57' E 030°11'0 0.0
2015-Aug-25 21:33N 59°57' E 030°11'0 0.0
2015-Aug-25 20:33N 59°57' E 030°11'0 0.0
2015-Aug-25 19:24N 59°57' E 030°11'0 0.0
2015-Aug-25 18:33N 59°57' E 030°11'0 0.0
2015-Aug-25 17:33N 59°57' E 030°11'0 0.0
2015-Aug-25 16:33N 59°57' E 030°11'0 0.0
2015-Aug-25 15:33N 59°57' E 030°11'0 0.0
2015-Aug-25 14:33N 59°57' E 030°11'0 0.0
2015-Aug-25 13:30N 59°57' E 030°11'0 0.0
2015-Aug-25 12:28N 59°57' E 030°11'0 0.0
2015-Aug-25 11:33N 59°57' E 030°11'0 0.0
2015-Aug-25 10:34N 59°57' E 030°11'0 0.0
2015-Aug-25 09:30N 59°57' E 030°11'0 0.0
2015-Aug-25 08:33N 59°57' E 030°11'0 0.0
2015-Aug-25 07:33N 59°57' E 030°11'0 0.0
2015-Aug-25 06:33N 59°57' E 030°11'0 0.0
2015-Aug-25 05:27N 59°57' E 030°11'0 0.4
2015-Aug-25 04:33N 59°57' E 030°11'10 9.7
2015-Aug-25 03:33N 59°57' E 029°51'1110.8
2015-Aug-25 02:33N 60°01' E 029°31'5513.9
2015-Aug-24 22:33N 60°09' E 027°41'1413.9
2015-Aug-24 21:33N 60°02' E 027°17'1313.1
2015-Aug-24 20:33N 59°59' E 026°52'1313.4
2015-Aug-24 19:33N 59°58' E 026°25'1313.5
2015-Aug-24 18:33N 59°54' E 025°59'  

Dump ship's entire track history